createdAt,value
2022-09-12T00:00:15.897Z,100957.13
2022-09-12T00:02:42.850Z,100929.94
2022-09-12T00:05:09.910Z,100952.06
2022-09-12T00:07:36.881Z,100932.88
2022-09-12T00:10:04.534Z,100922.78
2022-09-12T00:12:31.500Z,100958.81
2022-09-12T00:14:58.425Z,100911.38
2022-09-12T00:17:25.422Z,100948.00
2022-09-12T00:19:52.800Z,100953.19
2022-09-12T00:22:19.730Z,100930.84
2022-09-12T00:24:46.585Z,100952.81
2022-09-12T00:27:13.471Z,100909.13
2022-09-12T00:29:40.508Z,100956.44
2022-09-12T00:32:07.418Z,100958.13
2022-09-12T00:34:34.268Z,100929.53
2022-09-12T00:37:01.128Z,100936.75
2022-09-12T00:39:27.976Z,100900.47
2022-09-12T00:41:54.921Z,100910.19
2022-09-12T00:44:21.662Z,100949.72
2022-09-12T00:46:50.907Z,100960.19
2022-09-12T00:49:21.026Z,100959.06
2022-09-12T00:52:20.814Z,100965.34
2022-09-12T00:55:10.316Z,100964.66
2022-09-12T00:57:45.343Z,100961.13
2022-09-12T01:00:16.647Z,100929.06
2022-09-12T01:02:44.403Z,100956.94
2022-09-12T01:05:12.796Z,100946.72
2022-09-12T01:07:40.568Z,100955.25
2022-09-12T01:10:09.757Z,100917.41
2022-09-12T01:12:39.736Z,100944.00
2022-09-12T01:15:07.643Z,100917.06
2022-09-12T01:18:00.756Z,100962.13
2022-09-12T01:20:33.528Z,100960.34
2022-09-12T01:23:10.194Z,100952.53
2022-09-12T01:25:43.204Z,100941.00
2022-09-12T01:28:28.614Z,100954.44
2022-09-12T01:31:01.862Z,100954.59
2022-09-12T01:33:36.785Z,100954.44
2022-09-12T01:36:41.214Z,100954.59
2022-09-12T01:39:23.927Z,100956.25
2022-09-12T01:42:20.260Z,100950.94
2022-09-12T01:45:03.637Z,100928.13
2022-09-12T01:48:13.601Z,100942.31
2022-09-12T01:51:21.808Z,100945.06
2022-09-12T01:53:53.572Z,100934.38
2022-09-12T01:56:27.471Z,100898.81
2022-09-12T01:59:21.220Z,100951.94
2022-09-12T02:01:55.299Z,100941.72
2022-09-12T02:04:37.301Z,100934.38
2022-09-12T02:07:13.483Z,100907.47
2022-09-12T02:09:54.649Z,100892.06
2022-09-12T02:12:28.241Z,100885.84
2022-09-12T02:15:02.526Z,100886.94
2022-09-12T02:17:32.273Z,100939.41
2022-09-12T02:20:44.428Z,100860.50
2022-09-12T02:23:15.883Z,100938.53
2022-09-12T02:25:47.069Z,100916.13
2022-09-12T02:28:30.415Z,100912.28
2022-09-12T02:31:20.992Z,100946.50
2022-09-12T02:33:53.983Z,100944.47
2022-09-12T02:36:27.035Z,100942.78
2022-09-12T02:38:55.209Z,100940.84
2022-09-12T02:41:23.067Z,100938.19
2022-09-12T02:43:51.852Z,100935.53
2022-09-12T02:46:26.356Z,100901.19
2022-09-12T02:48:54.560Z,100905.97
2022-09-12T02:51:23.834Z,100896.84
2022-09-12T02:53:51.611Z,100892.44
2022-09-12T02:56:28.654Z,100923.06
2022-09-12T02:58:59.509Z,100924.13
2022-09-12T03:01:36.228Z,100912.50
2022-09-12T03:04:45.132Z,100907.66
2022-09-12T03:07:30.051Z,100900.94
2022-09-12T03:10:15.275Z,100854.25
2022-09-12T03:13:01.274Z,100905.06
2022-09-12T03:15:36.260Z,100905.31
2022-09-12T03:18:25.616Z,100894.47
2022-09-12T03:20:55.585Z,100911.66
2022-09-12T03:23:33.866Z,100909.16
2022-09-12T03:26:12.991Z,100885.13
2022-09-12T03:28:41.113Z,100913.34
2022-09-12T03:31:17.099Z,100892.22
2022-09-12T03:33:44.462Z,100870.47
2022-09-12T03:36:23.691Z,100896.19
2022-09-12T03:38:50.648Z,100887.88
2022-09-12T03:41:17.781Z,100880.34
2022-09-12T03:43:45.605Z,100908.72
2022-09-12T03:46:13.723Z,100856.63
2022-09-12T03:48:41.502Z,100882.38
2022-09-12T03:51:10.397Z,100881.50
2022-09-12T03:53:37.307Z,100877.19
2022-09-12T03:56:12.252Z,100888.50
2022-09-12T03:58:39.709Z,100874.66
2022-09-12T04:01:14.256Z,100904.00
2022-09-12T04:03:42.301Z,100891.38
2022-09-12T04:06:11.159Z,100862.06
2022-09-12T04:08:38.969Z,100915.81
2022-09-12T04:11:08.153Z,100902.31
2022-09-12T04:13:36.637Z,100899.31
2022-09-12T04:16:04.913Z,100901.72
2022-09-12T04:18:32.732Z,100887.31
2022-09-12T04:21:03.765Z,100867.34
2022-09-12T04:23:30.660Z,100864.19
2022-09-12T04:25:59.356Z,100883.81
2022-09-12T04:28:29.167Z,100875.53
2022-09-12T04:30:56.740Z,100864.72
2022-09-12T04:33:23.872Z,100897.63
2022-09-12T04:35:50.769Z,100913.25
2022-09-12T04:38:17.864Z,100925.28
2022-09-12T04:40:44.860Z,100840.78
2022-09-12T04:43:14.526Z,100925.03
2022-09-12T04:45:41.782Z,100896.19
2022-09-12T04:48:08.870Z,100913.59
2022-09-12T04:50:35.758Z,100891.47
2022-09-12T04:53:02.761Z,100867.13
2022-09-12T04:55:29.804Z,100887.53
2022-09-12T04:57:56.800Z,100884.53
2022-09-12T05:00:23.947Z,100890.53
2022-09-12T05:02:50.905Z,100882.13
2022-09-12T05:05:18.096Z,100901.00
2022-09-12T05:07:45.145Z,100907.22
2022-09-12T05:10:12.867Z,100891.50
2022-09-12T05:12:40.001Z,100919.13
2022-09-12T05:15:07.734Z,100912.75
2022-09-12T05:17:34.882Z,100903.63
2022-09-12T05:20:02.378Z,100929.72
2022-09-12T05:22:29.538Z,100882.63
2022-09-12T05:24:56.572Z,100920.56
2022-09-12T05:27:23.525Z,100878.06
2022-09-12T05:29:50.408Z,100908.94
2022-09-12T05:32:17.915Z,100920.22
2022-09-12T05:34:44.837Z,100929.25
2022-09-12T05:37:11.859Z,100875.03
2022-09-12T05:39:38.720Z,100936.72
2022-09-12T05:42:06.678Z,100938.53
2022-09-12T05:44:33.614Z,100904.84
2022-09-12T05:47:00.573Z,100932.50
2022-09-12T05:49:27.925Z,100939.25
2022-09-12T05:51:54.869Z,100924.69
2022-09-12T05:54:28.301Z,100939.13
2022-09-12T05:56:57.984Z,100936.34
2022-09-12T05:59:24.922Z,100894.25
2022-09-12T06:01:52.671Z,100924.94
2022-09-12T06:04:19.673Z,100929.13
2022-09-12T06:06:47.183Z,100940.91
2022-09-12T06:09:16.298Z,100939.25
2022-09-12T06:11:44.293Z,100950.53
2022-09-12T06:14:13.179Z,100951.47
2022-09-12T06:16:40.565Z,100948.59
2022-09-12T06:19:13.438Z,100930.00
2022-09-12T06:21:40.624Z,100915.53
2022-09-12T06:24:07.872Z,100936.59
2022-09-12T06:26:35.042Z,100898.38
2022-09-12T06:29:03.161Z,100916.78
2022-09-12T06:31:33.336Z,100905.72
2022-09-12T06:34:03.607Z,100949.81
2022-09-12T06:36:34.068Z,100944.03
2022-09-12T06:39:05.209Z,100958.47
2022-09-12T06:41:32.413Z,100950.75
2022-09-12T06:44:00.741Z,100955.53
2022-09-12T06:46:28.716Z,100955.28
2022-09-12T06:49:00.783Z,100921.66
2022-09-12T06:51:29.057Z,100954.81
2022-09-12T06:53:57.583Z,100956.38
2022-09-12T06:56:27.241Z,100946.28
2022-09-12T06:58:56.641Z,100910.47
2022-09-12T07:01:26.297Z,100928.16
2022-09-12T07:03:56.215Z,100948.34
2022-09-12T07:06:30.011Z,100965.88
2022-09-12T07:08:58.965Z,100977.66
2022-09-12T07:11:28.263Z,100977.41
2022-09-12T07:13:56.737Z,100924.66
2022-09-12T07:16:24.143Z,100965.84
2022-09-12T07:18:57.396Z,100972.31
2022-09-12T07:21:24.545Z,100987.72
2022-09-12T07:24:00.343Z,100937.72
2022-09-12T07:26:29.138Z,100960.31
2022-09-12T07:29:08.289Z,100979.06
2022-09-12T07:31:40.291Z,100982.19
2022-09-12T07:34:07.217Z,100975.44
2022-09-12T07:36:34.780Z,100985.91
2022-09-12T07:39:01.773Z,100952.81
2022-09-12T07:41:31.439Z,100992.03
2022-09-12T07:44:00.946Z,100957.94
2022-09-12T07:46:29.985Z,100973.72
2022-09-12T07:48:59.388Z,100980.78
2022-09-12T07:51:29.709Z,100957.59
2022-09-12T07:53:56.905Z,100918.09
2022-09-12T07:56:29.418Z,100970.03
2022-09-12T07:58:57.155Z,100969.16
2022-09-12T08:01:24.272Z,100942.75
2022-09-12T08:03:55.649Z,100980.31
2022-09-12T08:06:25.515Z,100981.84
2022-09-12T08:08:55.733Z,100923.66
2022-09-12T08:11:25.187Z,100917.28
2022-09-12T08:13:55.583Z,100969.44
2022-09-12T08:16:27.735Z,100937.78
2022-09-12T08:18:54.883Z,100929.56
2022-09-12T08:21:24.722Z,100948.03
2022-09-12T08:23:56.611Z,101000.00
2022-09-12T08:26:24.925Z,100965.88
2022-09-12T08:28:52.283Z,100990.25
2022-09-12T08:31:22.407Z,100978.78
2022-09-12T08:33:49.561Z,100980.28
2022-09-12T08:36:20.671Z,100967.75
2022-09-12T08:38:59.331Z,100961.38
2022-09-12T08:41:40.038Z,100961.16
2022-09-12T08:44:37.957Z,100984.00
2022-09-12T08:47:22.767Z,100987.84
2022-09-12T08:49:58.568Z,100996.50
2022-09-12T08:52:39.795Z,100960.41
2022-09-12T08:55:24.914Z,100984.19
2022-09-12T08:57:52.150Z,100972.31
2022-09-12T09:00:20.647Z,100999.75
2022-09-12T09:03:02.871Z,100999.03
2022-09-12T09:05:38.344Z,100986.00
2022-09-12T09:08:18.365Z,100990.91
2022-09-12T09:11:13.781Z,101006.84
2022-09-12T09:14:21.193Z,101012.59
2022-09-12T09:16:50.817Z,100994.50
2022-09-12T09:19:26.115Z,101012.56
2022-09-12T09:22:12.215Z,101000.34
2022-09-12T09:24:46.137Z,101008.22
2022-09-12T09:27:41.982Z,101009.19
2022-09-12T09:30:19.303Z,101030.34
2022-09-12T09:32:51.844Z,101043.25
2022-09-12T09:35:36.366Z,101036.66
2022-09-12T09:38:25.438Z,101042.69
2022-09-12T09:41:04.419Z,101034.00
2022-09-12T09:43:31.513Z,101005.63
2022-09-12T09:46:00.709Z,101012.88
2022-09-12T09:48:34.028Z,101028.13
2022-09-12T09:51:03.413Z,100983.34
2022-09-12T09:53:48.874Z,101049.94
2022-09-12T09:56:33.613Z,101052.19
2022-09-12T09:59:15.550Z,101038.59
2022-09-12T10:01:57.189Z,100995.38
2022-09-12T10:04:26.892Z,101045.75
2022-09-12T10:06:57.162Z,101042.09
2022-09-12T10:09:27.412Z,100991.19
2022-09-12T10:11:56.024Z,101054.53
2022-09-12T10:14:31.668Z,101003.47
2022-09-12T10:16:59.805Z,101006.69
2022-09-12T10:19:40.588Z,101006.31
2022-09-12T10:22:16.100Z,101021.41
2022-09-12T10:24:55.306Z,101011.88
2022-09-12T10:27:30.757Z,101031.19
2022-09-12T10:30:18.007Z,101056.25
2022-09-12T10:32:50.763Z,101037.91
2022-09-12T10:35:25.027Z,101015.09
2022-09-12T10:38:00.326Z,101013.13
2022-09-12T10:40:34.753Z,101022.78
2022-09-12T10:43:03.477Z,100985.31
2022-09-12T10:45:36.069Z,101062.78
2022-09-12T10:48:21.861Z,101012.53
2022-09-12T10:50:49.054Z,100998.28
2022-09-12T10:53:24.694Z,101065.53
2022-09-12T10:56:13.413Z,101072.78
2022-09-12T10:58:43.363Z,101067.41
2022-09-12T11:01:35.556Z,101082.69
2022-09-12T11:04:08.485Z,101079.66
2022-09-12T11:06:56.768Z,101084.84
2022-09-12T11:09:39.491Z,101060.09
2022-09-12T11:12:18.761Z,101070.94
2022-09-12T11:14:45.823Z,101066.31
2022-09-12T11:17:31.381Z,101086.59
2022-09-12T11:20:13.355Z,101012.50
2022-09-12T11:22:46.417Z,101084.00
2022-09-12T11:25:32.332Z,101076.50
2022-09-12T11:28:22.845Z,100996.50
2022-09-12T11:30:58.393Z,101032.34
2022-09-12T11:33:34.533Z,101071.78
2022-09-12T11:36:07.084Z,101062.50
2022-09-12T11:38:51.147Z,101098.22
2022-09-12T11:41:23.640Z,101032.59
2022-09-12T11:44:15.268Z,101079.28
2022-09-12T11:46:49.813Z,101085.72
2022-09-12T11:49:48.938Z,101002.72
2022-09-12T11:52:29.675Z,101082.06
2022-09-12T11:55:28.693Z,101080.22
2022-09-12T11:58:00.915Z,101082.25
2022-09-12T12:00:39.271Z,101008.06
2022-09-12T12:03:20.851Z,101090.53
2022-09-12T12:06:04.853Z,101045.84
2022-09-12T12:08:38.143Z,101087.81
2022-09-12T12:11:08.259Z,101051.41
2022-09-12T12:13:38.976Z,101087.91
2022-09-12T12:16:14.085Z,101101.66
2022-09-12T12:18:43.579Z,101029.13
2022-09-12T12:21:29.791Z,101095.97
2022-09-12T12:24:14.451Z,101084.63
2022-09-12T12:26:48.809Z,101093.28
2022-09-12T12:29:19.884Z,101105.63
2022-09-12T12:31:59.838Z,101101.66
2022-09-12T12:34:35.307Z,101079.47
2022-09-12T12:37:22.315Z,101101.69
2022-09-12T12:39:51.918Z,101110.78
2022-09-12T12:42:31.533Z,101109.38
2022-09-12T12:44:59.380Z,101108.25
2022-09-12T12:47:34.419Z,101107.81
2022-09-12T12:50:29.940Z,101066.22
2022-09-12T12:53:18.384Z,101112.75
2022-09-12T12:55:45.400Z,101120.19
2022-09-12T12:58:36.917Z,101114.38
2022-09-12T13:01:08.222Z,101110.75
2022-09-12T13:03:36.584Z,101041.31
2022-09-12T13:06:07.465Z,101106.75
2022-09-12T13:08:39.789Z,101077.66
2022-09-12T13:11:28.441Z,101114.03
2022-09-12T13:14:02.503Z,101078.22
2022-09-12T13:16:54.463Z,101116.03
2022-09-12T13:19:29.720Z,101053.56
2022-09-12T13:22:08.752Z,101100.63
2022-09-12T13:24:49.215Z,101070.38
2022-09-12T13:27:23.119Z,101056.13
2022-09-12T13:30:09.891Z,101080.72
2022-09-12T13:32:36.909Z,101031.50
2022-09-12T13:35:36.850Z,101120.38
2022-09-12T13:38:27.499Z,101105.47
2022-09-12T13:41:19.772Z,101104.75
2022-09-12T13:43:54.400Z,101092.44
2022-09-12T13:46:31.133Z,101051.47
2022-09-12T13:49:01.683Z,101026.44
2022-09-12T13:51:32.695Z,101072.91
2022-09-12T13:54:05.551Z,101110.59
2022-09-12T13:56:33.068Z,101032.03
2022-09-12T13:59:02.641Z,101104.25
2022-09-12T14:01:44.871Z,101096.13
2022-09-12T14:04:34.773Z,101040.69
2022-09-12T14:07:11.940Z,101063.72
2022-09-12T14:09:45.079Z,101032.91
2022-09-12T14:12:25.597Z,101059.91
2022-09-12T14:14:53.612Z,101074.41
2022-09-12T14:17:42.755Z,101107.72
2022-09-12T14:20:16.313Z,101091.09
2022-09-12T14:22:43.427Z,101039.84
2022-09-12T14:25:25.879Z,101114.25
2022-09-12T14:27:55.100Z,101075.03
2022-09-12T14:30:27.097Z,101113.44
2022-09-12T14:33:12.192Z,101095.97
2022-09-12T14:36:07.994Z,101111.53
2022-09-12T14:38:41.249Z,101061.25
2022-09-12T14:41:10.990Z,101118.28
2022-09-12T14:43:42.781Z,101095.31
2022-09-12T14:46:30.855Z,101089.72
2022-09-12T14:49:08.527Z,101094.75
2022-09-12T14:51:38.740Z,101086.75
2022-09-12T14:54:05.629Z,101078.22
2022-09-12T14:56:55.042Z,101097.25
2022-09-12T14:59:39.045Z,101095.88
2022-09-12T15:02:21.139Z,101101.47
2022-09-12T15:04:52.190Z,101105.09
2022-09-12T15:07:56.362Z,101105.50
2022-09-12T15:10:29.294Z,101084.94
2022-09-12T15:13:12.162Z,101108.03
2022-09-12T15:15:44.428Z,101106.78
2022-09-12T15:18:14.871Z,101099.34
2022-09-12T15:20:53.111Z,101102.00
2022-09-12T15:23:40.585Z,101104.53
2022-09-12T15:26:11.885Z,101089.13
2022-09-12T15:28:40.919Z,101097.22
2022-09-12T15:31:14.174Z,101089.25
2022-09-12T15:33:41.135Z,101099.00
2022-09-12T15:36:16.828Z,101105.06
2022-09-12T15:38:45.238Z,101116.66
2022-09-12T15:41:16.482Z,101100.22
2022-09-12T15:43:43.236Z,101111.53
2022-09-12T15:46:14.587Z,101095.22
2022-09-12T15:48:41.733Z,101120.59
2022-09-12T15:51:17.125Z,101121.31
2022-09-12T15:53:45.321Z,101114.69
2022-09-12T15:56:12.596Z,101112.00
2022-09-12T15:58:54.646Z,101114.13
2022-09-12T16:01:24.580Z,101116.75
2022-09-12T16:03:51.519Z,101119.19
2022-09-12T16:06:18.365Z,101130.66
2022-09-12T16:08:45.348Z,101121.41
2022-09-12T16:11:26.164Z,101128.78
2022-09-12T16:13:54.598Z,101124.09
2022-09-12T16:16:21.749Z,101125.69
2022-09-12T16:18:48.822Z,101119.09
2022-09-12T16:21:16.191Z,101113.19
2022-09-12T16:23:47.574Z,101122.25
2022-09-12T16:26:14.447Z,101133.59
2022-09-12T16:28:41.651Z,101118.91
2022-09-12T16:31:12.203Z,101114.56
2022-09-12T16:33:39.878Z,101123.00
2022-09-12T16:36:12.101Z,101121.75
2022-09-12T16:38:47.457Z,101122.38
2022-09-12T16:41:15.886Z,101126.00
2022-09-12T16:43:43.232Z,101134.09
2022-09-12T16:46:14.398Z,101139.41
2022-09-12T16:48:52.177Z,101139.03
2022-09-12T16:51:28.287Z,101139.94
2022-09-12T16:53:55.938Z,101130.34
2022-09-12T16:56:23.439Z,101149.34
2022-09-12T16:58:50.707Z,101150.44
2022-09-12T17:01:20.782Z,101145.16
2022-09-12T17:03:48.023Z,101158.88
2022-09-12T17:06:17.523Z,101162.75
2022-09-12T17:08:47.789Z,101160.53
2022-09-12T17:11:17.816Z,101160.75
2022-09-12T17:14:04.305Z,101156.41
2022-09-12T17:16:32.804Z,101162.53
2022-09-12T17:18:59.803Z,101163.75
2022-09-12T17:21:26.686Z,101170.50
2022-09-12T17:23:53.590Z,101164.25
2022-09-12T17:26:20.945Z,101156.19
2022-09-12T17:28:48.390Z,101174.13
2022-09-12T17:31:15.437Z,101183.28
2022-09-12T17:33:42.632Z,101181.97
2022-09-12T17:36:15.430Z,101173.53
2022-09-12T17:38:44.265Z,101191.63
2022-09-12T17:41:16.195Z,101184.97
2022-09-12T17:43:44.140Z,101191.84
2022-09-12T17:46:11.114Z,101191.50
2022-09-12T17:48:38.139Z,101183.06
2022-09-12T17:51:09.528Z,101188.97
2022-09-12T17:53:36.423Z,101190.19
2022-09-12T17:56:04.810Z,101192.59
2022-09-12T17:58:33.022Z,101197.91
2022-09-12T18:01:36.229Z,101193.94
2022-09-12T18:04:03.989Z,101157.91
2022-09-12T18:06:32.465Z,101201.88
2022-09-12T18:09:08.730Z,101190.56
2022-09-12T18:11:36.201Z,101205.13
2022-09-12T18:14:03.549Z,101166.81
2022-09-12T18:16:31.798Z,101126.00
2022-09-12T18:19:01.658Z,101194.50
2022-09-12T18:21:29.819Z,101201.59
2022-09-12T18:23:59.583Z,101204.63
2022-09-12T18:26:28.520Z,101170.41
2022-09-12T18:28:56.111Z,101194.38
2022-09-12T18:31:26.334Z,101219.66
2022-09-12T18:33:53.806Z,101183.63
2022-09-12T18:36:22.306Z,101176.03
2022-09-12T18:38:49.634Z,101178.19
2022-09-12T18:41:23.315Z,101222.78
2022-09-12T18:43:58.608Z,101192.28
2022-09-12T18:46:27.723Z,101224.94
2022-09-12T18:48:58.654Z,101219.03
2022-09-12T18:51:34.668Z,101211.06
2022-09-12T18:54:06.985Z,101181.56
2022-09-12T18:56:37.940Z,101235.63
2022-09-12T18:59:07.741Z,101217.34
2022-09-12T19:01:37.609Z,101221.41
2022-09-12T19:04:06.082Z,101178.25
2022-09-12T19:06:39.379Z,101217.41
2022-09-12T19:09:08.454Z,101245.84
2022-09-12T19:11:38.239Z,101201.53
2022-09-12T19:14:06.474Z,101253.69
2022-09-12T19:16:35.263Z,101253.78
2022-09-12T19:19:03.275Z,101253.31
2022-09-12T19:21:31.983Z,101235.59
2022-09-12T19:24:10.259Z,101216.41
2022-09-12T19:26:39.523Z,101241.22
2022-09-12T19:29:07.750Z,101253.50
2022-09-12T19:31:35.264Z,101280.50
2022-09-12T19:34:07.628Z,101236.84
2022-09-12T19:36:50.937Z,101244.69
2022-09-12T19:39:20.568Z,101286.38
2022-09-12T19:41:48.526Z,101292.06
2022-09-12T19:44:19.059Z,101221.78
2022-09-12T19:46:46.360Z,101269.06
2022-09-12T19:49:16.800Z,101252.69
2022-09-12T19:51:47.413Z,101257.22
2022-09-12T19:54:23.860Z,101291.94
2022-09-12T19:56:56.573Z,101263.16
2022-09-12T19:59:24.759Z,101301.56
2022-09-12T20:01:52.743Z,101238.78
2022-09-12T20:04:20.209Z,101267.56
2022-09-12T20:07:07.698Z,101272.88
2022-09-12T20:09:37.510Z,101271.53
2022-09-12T20:12:05.672Z,101274.19
2022-09-12T20:14:32.769Z,101299.50
2022-09-12T20:17:00.092Z,101283.56
2022-09-12T20:19:27.440Z,101299.72
2022-09-12T20:21:54.784Z,101257.88
2022-09-12T20:24:22.287Z,101263.19
2022-09-12T20:26:49.846Z,101301.88
2022-09-12T20:29:24.985Z,101290.78
2022-09-12T20:31:52.134Z,101290.16
2022-09-12T20:34:25.841Z,101306.44
2022-09-12T20:36:53.295Z,101295.69
2022-09-12T20:39:23.210Z,101314.38
2022-09-12T20:41:50.828Z,101242.53
2022-09-12T20:44:18.228Z,101268.78
2022-09-12T20:46:45.633Z,101305.09
2022-09-12T20:49:13.204Z,101307.97
2022-09-12T20:51:40.478Z,101258.72
2022-09-12T20:54:11.590Z,101232.84
2022-09-12T20:56:38.844Z,101326.41
2022-09-12T20:59:07.840Z,101315.94
2022-09-12T21:01:35.220Z,101266.16
2022-09-12T21:04:02.864Z,101241.00
2022-09-12T21:06:31.798Z,101309.66
2022-09-12T21:09:00.828Z,101290.69
2022-09-12T21:11:29.245Z,101279.47
2022-09-12T21:13:56.562Z,101272.63
2022-09-12T21:16:24.888Z,101322.59
2022-09-12T21:18:58.035Z,101333.41
2022-09-12T21:21:26.521Z,101326.75
2022-09-12T21:23:57.661Z,101274.06
2022-09-12T21:26:24.930Z,101293.09
2022-09-12T21:28:52.283Z,101318.03
2022-09-12T21:31:19.712Z,101329.84
2022-09-12T21:33:47.128Z,101327.44
2022-09-12T21:36:14.487Z,101304.94
2022-09-12T21:38:41.939Z,101357.16
2022-09-12T21:41:11.233Z,101368.06
2022-09-12T21:43:39.164Z,101308.97
2022-09-12T21:46:07.418Z,101319.75
2022-09-12T21:48:35.320Z,101372.78
2022-09-12T21:51:03.316Z,101312.13
2022-09-12T21:53:31.359Z,101331.34
2022-09-12T21:56:03.828Z,101331.78
2022-09-12T21:58:31.423Z,101374.91
2022-09-12T22:00:58.569Z,101382.28
2022-09-12T22:03:26.758Z,101330.06
2022-09-12T22:06:05.412Z,101348.53
2022-09-12T22:08:37.534Z,101386.88
2022-09-12T22:11:08.367Z,101385.59
2022-09-12T22:13:37.816Z,101310.41
2022-09-12T22:16:09.453Z,101382.63
2022-09-12T22:18:37.704Z,101387.06
2022-09-12T22:21:08.183Z,101365.03
2022-09-12T22:23:54.222Z,101383.19
2022-09-12T22:26:23.573Z,101383.50
2022-09-12T22:28:51.646Z,101381.91
2022-09-12T22:31:18.836Z,101319.59
2022-09-12T22:33:45.999Z,101359.13
2022-09-12T22:36:13.766Z,101387.91
2022-09-12T22:38:40.706Z,101394.31
2022-09-12T22:41:10.321Z,101388.28
2022-09-12T22:43:37.823Z,101393.75
2022-09-12T22:46:09.534Z,101385.69
2022-09-12T22:48:38.003Z,101390.22
2022-09-12T22:51:05.828Z,101387.03
2022-09-12T22:53:33.579Z,101392.59
2022-09-12T22:56:00.836Z,101369.19
2022-09-12T22:58:28.085Z,101396.84
2022-09-12T23:00:55.168Z,101376.16
2022-09-12T23:03:22.973Z,101390.19
2022-09-12T23:05:50.044Z,101395.56
2022-09-12T23:08:18.025Z,101401.28
2022-09-12T23:10:45.320Z,101381.22
2022-09-12T23:13:12.270Z,101388.78
2022-09-12T23:15:40.188Z,101403.44
2022-09-12T23:18:07.263Z,101407.88
2022-09-12T23:20:34.584Z,101393.97
2022-09-12T23:23:01.630Z,101376.28
2022-09-12T23:25:28.690Z,101377.59
2022-09-12T23:27:55.782Z,101344.06
2022-09-12T23:30:23.542Z,101353.56
2022-09-12T23:32:50.639Z,101421.63
2022-09-12T23:35:21.574Z,101411.47
2022-09-12T23:37:48.536Z,101404.16
2022-09-12T23:40:15.579Z,101415.28
2022-09-12T23:42:42.621Z,101424.13
2022-09-12T23:45:10.590Z,101421.75
2022-09-12T23:47:37.586Z,101404.22
2022-09-12T23:50:04.888Z,101412.69
2022-09-12T23:52:31.933Z,101424.19
2022-09-12T23:54:59.031Z,101414.91
2022-09-12T23:57:25.874Z,101401.09
2022-09-12T23:59:52.884Z,101420.75
